sensor_id;sensor_type;location;lat;lon;timestamp;P1;durP1;ratioP1;P2;durP2;ratioP2
46198;SDS011;31928;52.104;10.030;2023-05-10T00:00:44;3.38;;;2.80;;
46198;SDS011;31928;52.104;10.030;2023-05-10T00:05:38;3.78;;;3.00;;
46198;SDS011;31928;52.104;10.030;2023-05-10T00:08:04;3.70;;;3.40;;
46198;SDS011;31928;52.104;10.030;2023-05-10T00:10:31;3.78;;;3.40;;
46198;SDS011;31928;52.104;10.030;2023-05-10T00:15:25;3.75;;;3.10;;
46198;SDS011;31928;52.104;10.030;2023-05-10T00:20:18;3.50;;;3.20;;
46198;SDS011;31928;52.104;10.030;2023-05-10T00:25:11;3.55;;;3.35;;
46198;SDS011;31928;52.104;10.030;2023-05-10T00:30:05;4.10;;;3.72;;
46198;SDS011;31928;52.104;10.030;2023-05-10T00:32:32;4.55;;;4.22;;
46198;SDS011;31928;52.104;10.030;2023-05-10T00:37:25;3.10;;;2.90;;
46198;SDS011;31928;52.104;10.030;2023-05-10T00:42:19;3.42;;;3.17;;
46198;SDS011;31928;52.104;10.030;2023-05-10T00:47:13;3.92;;;3.63;;
46198;SDS011;31928;52.104;10.030;2023-05-10T00:49:40;3.38;;;3.08;;
46198;SDS011;31928;52.104;10.030;2023-05-10T00:52:08;3.92;;;3.63;;
46198;SDS011;31928;52.104;10.030;2023-05-10T00:54:36;3.60;;;3.30;;
46198;SDS011;31928;52.104;10.030;2023-05-10T00:57:02;4.13;;;3.80;;
46198;SDS011;31928;52.104;10.030;2023-05-10T00:59:30;2.95;;;2.75;;
46198;SDS011;31928;52.104;10.030;2023-05-10T01:01:57;3.50;;;3.30;;
46198;SDS011;31928;52.104;10.030;2023-05-10T01:04:24;3.85;;;3.55;;
46198;SDS011;31928;52.104;10.030;2023-05-10T01:06:54;3.92;;;3.63;;
46198;SDS011;31928;52.104;10.030;2023-05-10T01:11:48;3.35;;;3.15;;
46198;SDS011;31928;52.104;10.030;2023-05-10T01:14:17;3.92;;;3.63;;
46198;SDS011;31928;52.104;10.030;2023-05-10T01:16:47;3.70;;;3.40;;
46198;SDS011;31928;52.104;10.030;2023-05-10T01:19:19;4.57;;;4.22;;
46198;SDS011;31928;52.104;10.030;2023-05-10T01:33:23;4.25;;;3.92;;
46198;SDS011;31928;52.104;10.030;2023-05-10T01:36:05;5.15;;;4.63;;
46198;SDS011;31928;52.104;10.030;2023-05-10T01:38:42;4.18;;;3.88;;
46198;SDS011;31928;52.104;10.030;2023-05-10T01:46:20;4.03;;;3.72;;
46198;SDS011;31928;52.104;10.030;2023-05-10T01:48:54;5.75;;;4.13;;
46198;SDS011;31928;52.104;10.030;2023-05-10T01:51:24;5.05;;;4.68;;
46198;SDS011;31928;52.104;10.030;2023-05-10T01:53:58;4.22;;;3.83;;
46198;SDS011;31928;52.104;10.030;2023-05-10T01:56:28;4.35;;;3.95;;
46198;SDS011;31928;52.104;10.030;2023-05-10T01:58:57;5.03;;;4.63;;
46198;SDS011;31928;52.104;10.030;2023-05-10T02:01:26;4.28;;;3.97;;
46198;SDS011;31928;52.104;10.030;2023-05-10T02:03:53;4.30;;;4.00;;
46198;SDS011;31928;52.104;10.030;2023-05-10T02:06:23;3.85;;;3.38;;
46198;SDS011;31928;52.104;10.030;2023-05-10T02:08:52;3.97;;;3.58;;
46198;SDS011;31928;52.104;10.030;2023-05-10T02:11:20;4.43;;;4.05;;
46198;SDS011;31928;52.104;10.030;2023-05-10T02:13:49;4.80;;;4.40;;
46198;SDS011;31928;52.104;10.030;2023-05-10T02:16:18;4.28;;;3.97;;
46198;SDS011;31928;52.104;10.030;2023-05-10T02:18:50;4.70;;;3.83;;
46198;SDS011;31928;52.104;10.030;2023-05-10T02:21:19;4.60;;;4.13;;
46198;SDS011;31928;52.104;10.030;2023-05-10T02:23:48;4.85;;;4.43;;
46198;SDS011;31928;52.104;10.030;2023-05-10T02:26:18;4.03;;;3.72;;
46198;SDS011;31928;52.104;10.030;2023-05-10T02:28:47;4.30;;;4.00;;
46198;SDS011;31928;52.104;10.030;2023-05-10T02:31:15;4.43;;;4.13;;
46198;SDS011;31928;52.104;10.030;2023-05-10T02:33:43;3.67;;;3.47;;
46198;SDS011;31928;52.104;10.030;2023-05-10T02:36:11;3.88;;;3.58;;
46198;SDS011;31928;52.104;10.030;2023-05-10T02:38:39;3.90;;;3.70;;
46198;SDS011;31928;52.104;10.030;2023-05-10T02:41:07;4.25;;;3.90;;
46198;SDS011;31928;52.104;10.030;2023-05-10T02:43:36;3.55;;;3.35;;
46198;SDS011;31928;52.104;10.030;2023-05-10T02:46:06;4.05;;;3.83;;
46198;SDS011;31928;52.104;10.030;2023-05-10T02:51:00;3.80;;;3.50;;
46198;SDS011;31928;52.104;10.030;2023-05-10T02:53:31;4.88;;;3.70;;
46198;SDS011;31928;52.104;10.030;2023-05-10T02:56:04;4.30;;;3.92;;
46198;SDS011;31928;52.104;10.030;2023-05-10T02:58:33;4.50;;;4.20;;
46198;SDS011;31928;52.104;10.030;2023-05-10T03:03:27;3.95;;;3.75;;
46198;SDS011;31928;52.104;10.030;2023-05-10T03:05:53;7.82;;;5.45;;
46198;SDS011;31928;52.104;10.030;2023-05-10T03:08:22;4.18;;;3.90;;
46198;SDS011;31928;52.104;10.030;2023-05-10T03:13:47;4.60;;;4.30;;
46198;SDS011;31928;52.104;10.030;2023-05-10T03:16:25;4.07;;;3.78;;
46198;SDS011;31928;52.104;10.030;2023-05-10T03:21:33;4.03;;;3.80;;
46198;SDS011;31928;52.104;10.030;2023-05-10T03:24:06;4.32;;;4.03;;
46198;SDS011;31928;52.104;10.030;2023-05-10T03:26:35;4.20;;;3.80;;
46198;SDS011;31928;52.104;10.030;2023-05-10T03:29:04;3.97;;;3.67;;
46198;SDS011;31928;52.104;10.030;2023-05-10T03:31:31;4.35;;;4.05;;
46198;SDS011;31928;52.104;10.030;2023-05-10T03:33:59;8.95;;;8.15;;
46198;SDS011;31928;52.104;10.030;2023-05-10T03:36:26;5.45;;;4.97;;
46198;SDS011;31928;52.104;10.030;2023-05-10T03:38:53;4.50;;;4.10;;
46198;SDS011;31928;52.104;10.030;2023-05-10T03:41:20;3.58;;;3.38;;
46198;SDS011;31928;52.104;10.030;2023-05-10T03:43:46;4.28;;;3.97;;
46198;SDS011;31928;52.104;10.030;2023-05-10T03:48:40;3.97;;;3.67;;
46198;SDS011;31928;52.104;10.030;2023-05-10T03:51:06;3.80;;;3.60;;
46198;SDS011;31928;52.104;10.030;2023-05-10T03:56:00;4.10;;;3.80;;
46198;SDS011;31928;52.104;10.030;2023-05-10T03:58:26;4.07;;;3.78;;
46198;SDS011;31928;52.104;10.030;2023-05-10T04:03:20;3.95;;;3.75;;
46198;SDS011;31928;52.104;10.030;2023-05-10T04:05:46;4.32;;;4.07;;
46198;SDS011;31928;52.104;10.030;2023-05-10T04:08:13;4.45;;;4.05;;
46198;SDS011;31928;52.104;10.030;2023-05-10T04:10:42;4.25;;;3.92;;
46198;SDS011;31928;52.104;10.030;2023-05-10T04:13:09;5.70;;;3.65;;
46198;SDS011;31928;52.104;10.030;2023-05-10T04:15:37;4.15;;;3.90;;
46198;SDS011;31928;52.104;10.030;2023-05-10T04:18:04;4.97;;;4.57;;
46198;SDS011;31928;52.104;10.030;2023-05-10T04:20:33;4.55;;;4.25;;
46198;SDS011;31928;52.104;10.030;2023-05-10T04:25:27;4.30;;;4.00;;
46198;SDS011;31928;52.104;10.030;2023-05-10T04:30:20;3.50;;;3.30;;
46198;SDS011;31928;52.104;10.030;2023-05-10T04:32:47;4.30;;;4.00;;
46198;SDS011;31928;52.104;10.030;2023-05-10T04:35:14;4.10;;;3.70;;
46198;SDS011;31928;52.104;10.030;2023-05-10T04:37:41;3.83;;;3.50;;
46198;SDS011;31928;52.104;10.030;2023-05-10T04:40:07;4.95;;;3.63;;
46198;SDS011;31928;52.104;10.030;2023-05-10T04:42:35;3.83;;;3.53;;
46198;SDS011;31928;52.104;10.030;2023-05-10T04:47:28;3.65;;;3.35;;
46198;SDS011;31928;52.104;10.030;2023-05-10T04:49:54;4.45;;;4.05;;
46198;SDS011;31928;52.104;10.030;2023-05-10T04:52:21;4.30;;;4.00;;
46198;SDS011;31928;52.104;10.030;2023-05-10T04:57:14;3.85;;;3.55;;
46198;SDS011;31928;52.104;10.030;2023-05-10T05:02:08;3.17;;;2.80;;
46198;SDS011;31928;52.104;10.030;2023-05-10T05:04:35;5.40;;;3.25;;
46198;SDS011;31928;52.104;10.030;2023-05-10T05:07:02;7.55;;;3.97;;
46198;SDS011;31928;52.104;10.030;2023-05-10T05:11:55;3.20;;;3.00;;
46198;SDS011;31928;52.104;10.030;2023-05-10T05:16:48;3.58;;;3.38;;
46198;SDS011;31928;52.104;10.030;2023-05-10T05:19:15;3.55;;;3.28;;
46198;SDS011;31928;52.104;10.030;2023-05-10T05:21:42;3.55;;;3.35;;
46198;SDS011;31928;52.104;10.030;2023-05-10T05:24:08;3.40;;;3.10;;
46198;SDS011;31928;52.104;10.030;2023-05-10T05:26:36;3.50;;;3.30;;
46198;SDS011;31928;52.104;10.030;2023-05-10T05:29:03;3.70;;;3.40;;
46198;SDS011;31928;52.104;10.030;2023-05-10T05:31:29;3.85;;;3.55;;
46198;SDS011;31928;52.104;10.030;2023-05-10T05:33:56;5.30;;;4.68;;
46198;SDS011;31928;52.104;10.030;2023-05-10T05:38:50;3.72;;;3.45;;
46198;SDS011;31928;52.104;10.030;2023-05-10T05:43:43;3.65;;;3.42;;
46198;SDS011;31928;52.104;10.030;2023-05-10T05:48:36;4.70;;;4.40;;
46198;SDS011;31928;52.104;10.030;2023-05-10T05:53:32;4.05;;;3.85;;
46198;SDS011;31928;52.104;10.030;2023-05-10T05:56:00;3.78;;;3.58;;
46198;SDS011;31928;52.104;10.030;2023-05-10T06:00:53;3.63;;;3.42;;
46198;SDS011;31928;52.104;10.030;2023-05-10T06:03:20;4.65;;;4.35;;
46198;SDS011;31928;52.104;10.030;2023-05-10T06:05:47;3.67;;;3.47;;
46198;SDS011;31928;52.104;10.030;2023-05-10T06:08:14;4.65;;;4.25;;
46198;SDS011;31928;52.104;10.030;2023-05-10T06:10:40;4.07;;;3.78;;
46198;SDS011;31928;52.104;10.030;2023-05-10T06:13:07;4.35;;;4.05;;
46198;SDS011;31928;52.104;10.030;2023-05-10T06:15:34;3.97;;;3.75;;
46198;SDS011;31928;52.104;10.030;2023-05-10T06:20:27;4.07;;;3.78;;
46198;SDS011;31928;52.104;10.030;2023-05-10T06:25:21;4.97;;;4.57;;
46198;SDS011;31928;52.104;10.030;2023-05-10T06:30:18;4.15;;;3.90;;
46198;SDS011;31928;52.104;10.030;2023-05-10T06:35:12;4.03;;;3.78;;
46198;SDS011;31928;52.104;10.030;2023-05-10T06:37:39;4.00;;;3.70;;
46198;SDS011;31928;52.104;10.030;2023-05-10T06:42:33;3.80;;;3.55;;
46198;SDS011;31928;52.104;10.030;2023-05-10T06:44:59;3.63;;;3.38;;
46198;SDS011;31928;52.104;10.030;2023-05-10T06:47:26;3.80;;;3.47;;
46198;SDS011;31928;52.104;10.030;2023-05-10T06:49:52;4.18;;;3.58;;
46198;SDS011;31928;52.104;10.030;2023-05-10T06:52:19;4.18;;;3.92;;
46198;SDS011;31928;52.104;10.030;2023-05-10T06:57:13;4.15;;;3.85;;
46198;SDS011;31928;52.104;10.030;2023-05-10T06:59:56;4.25;;;3.95;;
46198;SDS011;31928;52.104;10.030;2023-05-10T07:02:22;3.45;;;3.15;;
46198;SDS011;31928;52.104;10.030;2023-05-10T07:07:18;3.92;;;3.63;;
46198;SDS011;31928;52.104;10.030;2023-05-10T07:09:45;3.88;;;3.50;;
46198;SDS011;31928;52.104;10.030;2023-05-10T07:12:12;3.65;;;3.38;;
46198;SDS011;31928;52.104;10.030;2023-05-10T07:14:41;4.13;;;3.78;;
46198;SDS011;31928;52.104;10.030;2023-05-10T07:17:08;4.72;;;3.45;;
46198;SDS011;31928;52.104;10.030;2023-05-10T07:19:35;3.92;;;3.63;;
46198;SDS011;31928;52.104;10.030;2023-05-10T07:22:02;4.28;;;3.97;;
46198;SDS011;31928;52.104;10.030;2023-05-10T07:24:29;4.07;;;3.78;;
46198;SDS011;31928;52.104;10.030;2023-05-10T07:26:57;3.58;;;3.38;;
46198;SDS011;31928;52.104;10.030;2023-05-10T07:29:24;3.92;;;3.67;;
46198;SDS011;31928;52.104;10.030;2023-05-10T07:31:51;4.00;;;3.80;;
46198;SDS011;31928;52.104;10.030;2023-05-10T07:34:18;3.65;;;3.45;;
46198;SDS011;31928;52.104;10.030;2023-05-10T07:36:45;4.18;;;3.88;;
46198;SDS011;31928;52.104;10.030;2023-05-10T07:39:11;3.80;;;3.60;;
46198;SDS011;31928;52.104;10.030;2023-05-10T07:41:49;3.65;;;3.45;;
46198;SDS011;31928;52.104;10.030;2023-05-10T07:44:16;3.72;;;3.45;;
46198;SDS011;31928;52.104;10.030;2023-05-10T07:46:45;3.67;;;3.47;;
46198;SDS011;31928;52.104;10.030;2023-05-10T07:49:12;4.32;;;4.03;;
46198;SDS011;31928;52.104;10.030;2023-05-10T07:51:39;4.32;;;4.03;;
46198;SDS011;31928;52.104;10.030;2023-05-10T07:54:06;4.38;;;4.07;;
46198;SDS011;31928;52.104;10.030;2023-05-10T07:58:59;3.55;;;3.35;;
46198;SDS011;31928;52.104;10.030;2023-05-10T08:01:29;3.92;;;3.67;;
46198;SDS011;31928;52.104;10.030;2023-05-10T08:03:57;3.60;;;3.40;;
46198;SDS011;31928;52.104;10.030;2023-05-10T08:06:24;3.92;;;3.70;;
46198;SDS011;31928;52.104;10.030;2023-05-10T08:08:53;3.10;;;2.90;;
46198;SDS011;31928;52.104;10.030;2023-05-10T08:11:20;2.92;;;2.70;;
46198;SDS011;31928;52.104;10.030;2023-05-10T08:13:47;2.70;;;2.50;;
46198;SDS011;31928;52.104;10.030;2023-05-10T08:16:16;2.40;;;2.20;;
46198;SDS011;31928;52.104;10.030;2023-05-10T08:18:43;2.20;;;2.10;;
46198;SDS011;31928;52.104;10.030;2023-05-10T08:21:12;2.58;;;2.30;;
46198;SDS011;31928;52.104;10.030;2023-05-10T08:23:39;2.08;;;1.98;;
46198;SDS011;31928;52.104;10.030;2023-05-10T08:26:06;2.38;;;2.28;;
46198;SDS011;31928;52.104;10.030;2023-05-10T08:31:00;2.05;;;1.95;;
46198;SDS011;31928;52.104;10.030;2023-05-10T08:35:53;1.80;;;1.70;;
46198;SDS011;31928;52.104;10.030;2023-05-10T08:40:46;1.83;;;1.73;;
46198;SDS011;31928;52.104;10.030;2023-05-10T08:43:17;2.13;;;2.03;;
46198;SDS011;31928;52.104;10.030;2023-05-10T08:45:45;1.80;;;1.70;;
46198;SDS011;31928;52.104;10.030;2023-05-10T08:48:13;1.85;;;1.75;;
46198;SDS011;31928;52.104;10.030;2023-05-10T08:50:40;1.92;;;1.83;;
46198;SDS011;31928;52.104;10.030;2023-05-10T08:53:09;2.10;;;2.00;;
46198;SDS011;31928;52.104;10.030;2023-05-10T08:55:37;1.70;;;1.58;;
46198;SDS011;31928;52.104;10.030;2023-05-10T08:58:06;1.90;;;1.80;;
46198;SDS011;31928;52.104;10.030;2023-05-10T09:00:33;1.80;;;1.70;;
46198;SDS011;31928;52.104;10.030;2023-05-10T09:03:02;1.48;;;1.48;;
46198;SDS011;31928;52.104;10.030;2023-05-10T09:05:29;1.80;;;1.70;;
46198;SDS011;31928;52.104;10.030;2023-05-10T09:07:56;1.98;;;1.88;;
46198;SDS011;31928;52.104;10.030;2023-05-10T09:10:25;1.75;;;1.70;;
46198;SDS011;31928;52.104;10.030;2023-05-10T09:12:53;1.70;;;1.60;;
46198;SDS011;31928;52.104;10.030;2023-05-10T09:15:24;1.95;;;1.85;;
46198;SDS011;31928;52.104;10.030;2023-05-10T09:17:52;1.52;;;1.48;;
46198;SDS011;31928;52.104;10.030;2023-05-10T09:20:19;1.60;;;1.50;;
46198;SDS011;31928;52.104;10.030;2023-05-10T09:22:45;1.52;;;1.45;;
46198;SDS011;31928;52.104;10.030;2023-05-10T09:27:46;2.05;;;1.70;;
46198;SDS011;31928;52.104;10.030;2023-05-10T09:30:17;1.60;;;1.58;;
46198;SDS011;31928;52.104;10.030;2023-05-10T09:32:51;1.55;;;1.45;;
46198;SDS011;31928;52.104;10.030;2023-05-10T09:35:19;1.45;;;1.45;;
46198;SDS011;31928;52.104;10.030;2023-05-10T09:37:48;1.70;;;1.60;;
46198;SDS011;31928;52.104;10.030;2023-05-10T09:40:18;1.20;;;1.20;;
46198;SDS011;31928;52.104;10.030;2023-05-10T09:42:53;1.30;;;1.30;;
46198;SDS011;31928;52.104;10.030;2023-05-10T09:45:33;1.40;;;1.40;;
46198;SDS011;31928;52.104;10.030;2023-05-10T09:48:04;1.38;;;1.38;;
46198;SDS011;31928;52.104;10.030;2023-05-10T09:50:31;1.60;;;1.50;;
46198;SDS011;31928;52.104;10.030;2023-05-10T09:52:59;1.23;;;1.23;;
46198;SDS011;31928;52.104;10.030;2023-05-10T09:58:05;1.30;;;1.30;;
46198;SDS011;31928;52.104;10.030;2023-05-10T10:00:38;1.60;;;1.60;;
46198;SDS011;31928;52.104;10.030;2023-05-10T10:03:06;1.30;;;1.30;;
46198;SDS011;31928;52.104;10.030;2023-05-10T10:05:39;1.48;;;1.48;;
46198;SDS011;31928;52.104;10.030;2023-05-10T10:08:06;1.50;;;1.50;;
46198;SDS011;31928;52.104;10.030;2023-05-10T10:10:33;1.30;;;1.30;;
46198;SDS011;31928;52.104;10.030;2023-05-10T10:13:01;1.35;;;1.30;;
46198;SDS011;31928;52.104;10.030;2023-05-10T10:15:30;1.40;;;1.40;;
46198;SDS011;31928;52.104;10.030;2023-05-10T10:17:57;1.33;;;1.27;;
46198;SDS011;31928;52.104;10.030;2023-05-10T10:20:23;1.65;;;1.55;;
46198;SDS011;31928;52.104;10.030;2023-05-10T10:22:51;1.40;;;1.40;;
46198;SDS011;31928;52.104;10.030;2023-05-10T10:25:19;1.70;;;1.60;;
46198;SDS011;31928;52.104;10.030;2023-05-10T10:35:52;1.55;;;1.45;;
46198;SDS011;31928;52.104;10.030;2023-05-10T10:38:20;1.88;;;1.77;;
46198;SDS011;31928;52.104;10.030;2023-05-10T10:40:47;1.67;;;1.58;;
46198;SDS011;31928;52.104;10.030;2023-05-10T10:43:21;1.67;;;1.60;;
46198;SDS011;31928;52.104;10.030;2023-05-10T10:48:48;1.60;;;1.50;;
46198;SDS011;31928;52.104;10.030;2023-05-10T10:51:16;1.98;;;1.88;;
46198;SDS011;31928;52.104;10.030;2023-05-10T10:53:42;1.52;;;1.50;;
46198;SDS011;31928;52.104;10.030;2023-05-10T10:56:10;1.60;;;1.50;;
46198;SDS011;31928;52.104;10.030;2023-05-10T10:58:39;1.80;;;1.70;;
46198;SDS011;31928;52.104;10.030;2023-05-10T11:01:14;1.58;;;1.48;;
46198;SDS011;31928;52.104;10.030;2023-05-10T11:06:31;1.90;;;1.80;;
46198;SDS011;31928;52.104;10.030;2023-05-10T11:08:59;1.95;;;1.85;;
46198;SDS011;31928;52.104;10.030;2023-05-10T11:11:31;2.10;;;2.00;;
46198;SDS011;31928;52.104;10.030;2023-05-10T11:14:02;1.98;;;1.88;;
46198;SDS011;31928;52.104;10.030;2023-05-10T11:16:40;2.17;;;2.08;;
46198;SDS011;31928;52.104;10.030;2023-05-10T11:19:10;2.00;;;1.90;;
46198;SDS011;31928;52.104;10.030;2023-05-10T11:21:48;1.88;;;1.75;;
46198;SDS011;31928;52.104;10.030;2023-05-10T11:24:37;1.70;;;1.60;;
46198;SDS011;31928;52.104;10.030;2023-05-10T11:27:05;1.85;;;1.75;;
46198;SDS011;31928;52.104;10.030;2023-05-10T11:29:31;2.70;;;2.50;;
46198;SDS011;31928;52.104;10.030;2023-05-10T11:31:58;1.88;;;1.77;;
46198;SDS011;31928;52.104;10.030;2023-05-10T11:34:26;1.70;;;1.60;;
46198;SDS011;31928;52.104;10.030;2023-05-10T11:36:56;1.67;;;1.58;;
46198;SDS011;31928;52.104;10.030;2023-05-10T11:39:27;1.70;;;1.60;;
46198;SDS011;31928;52.104;10.030;2023-05-10T11:41:55;1.70;;;1.60;;
46198;SDS011;31928;52.104;10.030;2023-05-10T11:44:23;1.70;;;1.60;;
46198;SDS011;31928;52.104;10.030;2023-05-10T11:46:49;1.83;;;1.70;;
46198;SDS011;31928;52.104;10.030;2023-05-10T11:49:17;2.08;;;1.40;;
46198;SDS011;31928;52.104;10.030;2023-05-10T11:51:44;1.63;;;1.40;;
46198;SDS011;31928;52.104;10.030;2023-05-10T11:54:11;1.80;;;1.70;;
46198;SDS011;31928;52.104;10.030;2023-05-10T11:56:38;1.42;;;1.35;;
46198;SDS011;31928;52.104;10.030;2023-05-10T11:59:06;2.25;;;1.77;;
46198;SDS011;31928;52.104;10.030;2023-05-10T12:01:34;1.50;;;1.40;;
46198;SDS011;31928;52.104;10.030;2023-05-10T12:04:02;2.35;;;2.15;;
46198;SDS011;31928;52.104;10.030;2023-05-10T12:06:30;1.80;;;1.70;;
46198;SDS011;31928;52.104;10.030;2023-05-10T12:08:58;1.58;;;1.48;;
46198;SDS011;31928;52.104;10.030;2023-05-10T12:11:26;1.50;;;1.30;;
46198;SDS011;31928;52.104;10.030;2023-05-10T12:13:54;1.40;;;1.30;;
46198;SDS011;31928;52.104;10.030;2023-05-10T12:16:23;1.60;;;1.40;;
46198;SDS011;31928;52.104;10.030;2023-05-10T12:18:52;1.50;;;1.40;;
46198;SDS011;31928;52.104;10.030;2023-05-10T12:21:21;1.42;;;1.33;;
46198;SDS011;31928;52.104;10.030;2023-05-10T12:23:49;1.55;;;1.45;;
46198;SDS011;31928;52.104;10.030;2023-05-10T12:26:17;1.10;;;1.10;;
46198;SDS011;31928;52.104;10.030;2023-05-10T12:28:44;1.60;;;1.50;;
46198;SDS011;31928;52.104;10.030;2023-05-10T12:31:10;3.33;;;1.40;;
46198;SDS011;31928;52.104;10.030;2023-05-10T12:33:38;1.48;;;1.30;;
46198;SDS011;31928;52.104;10.030;2023-05-10T12:36:06;1.45;;;1.35;;
46198;SDS011;31928;52.104;10.030;2023-05-10T12:38:34;1.38;;;1.27;;
46198;SDS011;31928;52.104;10.030;2023-05-10T12:41:03;1.35;;;1.20;;
46198;SDS011;31928;52.104;10.030;2023-05-10T12:43:31;1.55;;;1.45;;
46198;SDS011;31928;52.104;10.030;2023-05-10T12:46:03;1.70;;;1.60;;
46198;SDS011;31928;52.104;10.030;2023-05-10T12:48:31;1.55;;;1.50;;
46198;SDS011;31928;52.104;10.030;2023-05-10T12:51:00;1.38;;;1.27;;
46198;SDS011;31928;52.104;10.030;2023-05-10T12:53:27;1.88;;;1.60;;
46198;SDS011;31928;52.104;10.030;2023-05-10T12:55:55;1.90;;;1.80;;
46198;SDS011;31928;52.104;10.030;2023-05-10T12:58:21;2.35;;;1.70;;
46198;SDS011;31928;52.104;10.030;2023-05-10T13:01:01;1.92;;;1.60;;
46198;SDS011;31928;52.104;10.030;2023-05-10T13:03:28;1.50;;;1.40;;
46198;SDS011;31928;52.104;10.030;2023-05-10T13:05:54;1.92;;;1.58;;
46198;SDS011;31928;52.104;10.030;2023-05-10T13:08:21;2.15;;;1.50;;
46198;SDS011;31928;52.104;10.030;2023-05-10T13:10:48;1.40;;;1.30;;
46198;SDS011;31928;52.104;10.030;2023-05-10T13:13:15;1.60;;;1.50;;
46198;SDS011;31928;52.104;10.030;2023-05-10T13:15:41;1.70;;;1.60;;
46198;SDS011;31928;52.104;10.030;2023-05-10T13:18:08;1.65;;;1.55;;
46198;SDS011;31928;52.104;10.030;2023-05-10T13:20:35;1.63;;;1.52;;
46198;SDS011;31928;52.104;10.030;2023-05-10T13:23:02;1.80;;;1.70;;
46198;SDS011;31928;52.104;10.030;2023-05-10T13:25:29;1.95;;;1.85;;
46198;SDS011;31928;52.104;10.030;2023-05-10T13:27:56;1.90;;;1.70;;
46198;SDS011;31928;52.104;10.030;2023-05-10T13:30:22;2.72;;;1.50;;
46198;SDS011;31928;52.104;10.030;2023-05-10T13:32:50;1.70;;;1.60;;
46198;SDS011;31928;52.104;10.030;2023-05-10T13:35:17;1.80;;;1.70;;
46198;SDS011;31928;52.104;10.030;2023-05-10T13:37:43;1.60;;;1.50;;
46198;SDS011;31928;52.104;10.030;2023-05-10T13:40:10;1.75;;;1.65;;
46198;SDS011;31928;52.104;10.030;2023-05-10T13:42:37;1.80;;;1.70;;
46198;SDS011;31928;52.104;10.030;2023-05-10T13:45:04;1.60;;;1.52;;
46198;SDS011;31928;52.104;10.030;2023-05-10T13:47:31;1.85;;;1.75;;
46198;SDS011;31928;52.104;10.030;2023-05-10T13:49:58;1.80;;;1.70;;
46198;SDS011;31928;52.104;10.030;2023-05-10T13:52:25;1.90;;;1.80;;
46198;SDS011;31928;52.104;10.030;2023-05-10T13:54:52;2.00;;;1.70;;
46198;SDS011;31928;52.104;10.030;2023-05-10T13:57:21;2.03;;;1.92;;
46198;SDS011;31928;52.104;10.030;2023-05-10T13:59:49;2.13;;;1.92;;
46198;SDS011;31928;52.104;10.030;2023-05-10T14:02:16;1.63;;;1.52;;
46198;SDS011;31928;52.104;10.030;2023-05-10T14:04:43;1.95;;;1.85;;
46198;SDS011;31928;52.104;10.030;2023-05-10T14:07:09;1.60;;;1.50;;
46198;SDS011;31928;52.104;10.030;2023-05-10T14:09:36;1.60;;;1.50;;
46198;SDS011;31928;52.104;10.030;2023-05-10T14:12:03;1.80;;;1.70;;
46198;SDS011;31928;52.104;10.030;2023-05-10T14:14:29;1.45;;;1.38;;
46198;SDS011;31928;52.104;10.030;2023-05-10T14:16:56;1.50;;;1.40;;
46198;SDS011;31928;52.104;10.030;2023-05-10T14:19:23;1.60;;;1.50;;
46198;SDS011;31928;52.104;10.030;2023-05-10T14:21:50;1.45;;;1.40;;
46198;SDS011;31928;52.104;10.030;2023-05-10T14:24:18;1.63;;;1.52;;
46198;SDS011;31928;52.104;10.030;2023-05-10T14:26:44;1.63;;;1.52;;
46198;SDS011;31928;52.104;10.030;2023-05-10T14:29:11;1.60;;;1.50;;
46198;SDS011;31928;52.104;10.030;2023-05-10T14:31:38;1.50;;;1.40;;
46198;SDS011;31928;52.104;10.030;2023-05-10T14:34:06;1.40;;;1.30;;
46198;SDS011;31928;52.104;10.030;2023-05-10T14:36:33;1.75;;;1.60;;
46198;SDS011;31928;52.104;10.030;2023-05-10T14:38:59;1.63;;;1.52;;
46198;SDS011;31928;52.104;10.030;2023-05-10T14:41:26;1.40;;;1.30;;
46198;SDS011;31928;52.104;10.030;2023-05-10T14:43:53;1.40;;;1.30;;
46198;SDS011;31928;52.104;10.030;2023-05-10T14:46:19;1.70;;;1.60;;
46198;SDS011;31928;52.104;10.030;2023-05-10T14:48:46;1.50;;;1.40;;
46198;SDS011;31928;52.104;10.030;2023-05-10T14:51:13;1.52;;;1.42;;
46198;SDS011;31928;52.104;10.030;2023-05-10T14:53:40;1.95;;;1.85;;
46198;SDS011;31928;52.104;10.030;2023-05-10T14:56:06;1.63;;;1.52;;
